Time;durP1;ratioP1;P1;durP2;ratioP2;P2;SDS_P1;SDS_P2;PMS_P1;PMS_P2;Temp;Humidity;BMP_temperature;BMP_pressure;BME280_temperature;BME280_humidity;BME280_pressure;Samples;Min_cycle;Max_cycle;Signal;HPM_P1;HPM_P2
2022/06/19 04:01:43;;;;;;;4.20;2.00;;;16.00;99.90;;;;;;5374107;23;20511;-70
2022/06/19 04:04:11;;;;;;;3.13;2.53;;;16.10;99.90;;;;;;4974017;28;20464;-70
2022/06/19 04:06:41;;;;;;;6.90;2.20;;;16.10;99.90;;;;;;4970961;28;20495;-70
2022/06/19 04:09:11;;;;;;;6.10;2.27;;;16.10;99.90;;;;;;4973893;28;20468;-70
2022/06/19 04:11:37;;;;;;;4.13;1.93;;;16.00;99.90;;;;;;4972821;28;21007;-71
2022/06/19 04:14:04;;;;;;;7.97;2.37;;;16.00;99.90;;;;;;4973547;28;20463;-71
2022/06/19 04:16:34;;;;;;;5.77;2.73;;;16.10;99.90;;;;;;4973520;28;20886;-68
2022/06/19 04:19:04;;;;;;;3.50;2.23;;;16.10;99.90;;;;;;4973431;28;20581;-68
2022/06/19 04:21:33;;;;;;;6.23;2.43;;;16.10;99.90;;;;;;4973039;28;20547;-69
2022/06/19 04:24:03;;;;;;;9.93;3.10;;;16.10;99.90;;;;;;4972654;28;20472;-68
2022/06/19 04:26:31;;;;;;;7.23;2.50;;;16.20;99.90;;;;;;4972350;28;20463;-69
2022/06/19 04:28:59;;;;;;;16.87;2.90;;;16.30;99.90;;;;;;4973230;28;20487;-68
2022/06/19 04:31:25;;;;;;;4.93;2.50;;;16.40;99.90;;;;;;4972294;28;21019;-68
2022/06/19 04:33:53;;;;;;;5.93;2.23;;;16.40;99.90;;;;;;4973099;28;20463;-69
2022/06/19 04:36:25;;;;;;;9.77;3.60;;;16.40;99.90;;;;;;4973067;28;20464;-68
2022/06/19 04:38:54;;;;;;;5.07;2.80;;;16.40;99.90;;;;;;4973167;28;20544;-68
2022/06/19 04:41:24;;;;;;;9.83;3.40;;;16.40;99.90;;;;;;4972419;28;20486;-69
2022/06/19 04:43:51;;;;;;;11.20;3.23;;;16.30;99.90;;;;;;4973417;28;20511;-69
2022/06/19 04:46:19;;;;;;;5.90;2.47;;;16.30;99.90;;;;;;4972411;28;20470;-68
2022/06/19 04:48:46;;;;;;;11.10;3.63;;;16.30;99.90;;;;;;4973059;28;21064;-68
2022/06/19 04:51:14;;;;;;;10.37;3.57;;;16.30;99.90;;;;;;4972296;28;20491;-69
2022/06/19 04:53:43;;;;;;;5.90;2.30;;;16.40;99.90;;;;;;4972695;28;20503;-69
2022/06/19 04:56:11;;;;;;;9.57;3.40;;;16.40;99.90;;;;;;4965223;28;20475;-68
2022/06/19 04:58:38;;;;;;;4.33;2.50;;;16.50;99.90;;;;;;4972598;28;20827;-69
2022/06/19 05:01:10;;;;;;;6.40;3.57;;;16.70;99.90;;;;;;4972114;28;20514;-68
2022/06/19 05:03:36;;;;;;;8.37;3.40;;;16.50;99.90;;;;;;4972624;28;20471;-69
2022/06/19 05:06:04;;;;;;;9.20;3.50;;;16.40;99.90;;;;;;4972397;28;20464;-68
2022/06/19 05:08:31;;;;;;;3.80;2.60;;;16.40;99.90;;;;;;4972428;28;20571;-68
2022/06/19 05:10:59;;;;;;;5.90;2.70;;;16.40;99.90;;;;;;4971559;28;20479;-68
2022/06/19 05:13:26;;;;;;;5.23;2.40;;;16.50;99.90;;;;;;4972773;28;20471;-69
2022/06/19 05:16:03;;;;;;;5.07;2.10;;;16.60;99.90;;;;;;4971914;28;20574;-69
2022/06/19 05:18:30;;;;;;;5.80;2.80;;;16.60;99.90;;;;;;4972171;28;20459;-68
2022/06/19 05:20:57;;;;;;;2.63;1.97;;;16.80;99.90;;;;;;4972398;28;20495;-69
2022/06/19 05:23:24;;;;;;;3.33;2.40;;;17.30;99.90;;;;;;4972394;28;20528;-69
2022/06/19 05:25:51;;;;;;;4.40;2.80;;;17.30;99.90;;;;;;4971611;28;20467;-69
2022/06/19 05:28:19;;;;;;;5.70;2.33;;;17.40;99.90;;;;;;4971954;28;20553;-69
2022/06/19 05:30:45;;;;;;;8.07;3.67;;;17.80;99.90;;;;;;4971005;28;20998;-69
2022/06/19 05:33:12;;;;;;;6.47;2.80;;;17.90;99.90;;;;;;4972059;28;20470;-69
2022/06/19 05:35:39;;;;;;;5.43;2.03;;;17.90;99.90;;;;;;4971849;28;20474;-69
2022/06/19 05:38:06;;;;;;;5.80;2.50;;;17.90;99.90;;;;;;4972036;28;20463;-69
2022/06/19 05:40:33;;;;;;;6.03;1.77;;;18.00;99.90;;;;;;4970957;28;20488;-68
2022/06/19 05:42:59;;;;;;;7.03;2.80;;;18.00;99.90;;;;;;4972377;28;20478;-68
2022/06/19 05:45:27;;;;;;;7.53;2.27;;;18.20;99.90;;;;;;4967034;28;20463;-68
2022/06/19 05:47:54;;;;;;;10.80;2.67;;;18.30;99.90;;;;;;4971955;28;20491;-68
2022/06/19 05:50:21;;;;;;;4.23;1.93;;;18.60;99.90;;;;;;4971884;28;20969;-68
2022/06/19 05:52:47;;;;;;;6.00;2.03;;;19.00;99.90;;;;;;4972658;28;20844;-68
2022/06/19 05:55:14;;;;;;;8.53;2.90;;;19.30;99.90;;;;;;4971009;28;20486;-69
2022/06/19 05:57:41;;;;;;;7.87;2.50;;;19.60;99.90;;;;;;4971524;28;20831;-68
2022/06/19 06:00:09;;;;;;;2.50;2.10;;;19.60;99.90;;;;;;4971481;28;20463;-68
2022/06/19 06:02:38;;;;;;;8.33;2.10;;;19.70;99.90;;;;;;4971283;28;21042;-68
2022/06/19 06:05:05;;;;;;;5.53;2.53;;;19.80;99.90;;;;;;4972134;28;20486;-68
2022/06/19 06:07:32;;;;;;;4.63;2.10;;;19.90;99.90;;;;;;4971543;28;20492;-68
2022/06/19 06:09:59;;;;;;;5.60;2.70;;;20.40;99.90;;;;;;4971354;28;20463;-69
2022/06/19 06:12:26;;;;;;;5.70;2.10;;;20.90;99.90;;;;;;4970770;28;20847;-68
2022/06/19 06:14:53;;;;;;;3.73;2.10;;;21.10;99.90;;;;;;4971576;28;20503;-68
2022/06/19 06:17:21;;;;;;;5.13;2.37;;;21.40;99.90;;;;;;4971319;28;20551;-69
2022/06/19 06:19:49;;;;;;;6.40;2.30;;;21.50;99.90;;;;;;4971318;28;20463;-68
2022/06/19 06:22:16;;;;;;;2.60;2.00;;;21.70;99.90;;;;;;4966346;28;20492;-69
2022/06/19 06:24:43;;;;;;;4.23;1.60;;;22.10;99.90;;;;;;4966805;28;20543;-69
2022/06/19 06:27:09;;;;;;;4.90;2.20;;;22.30;99.90;;;;;;4974829;28;20464;-69
2022/06/19 06:29:37;;;;;;;3.57;2.07;;;22.80;99.90;;;;;;4975448;28;20467;-69
2022/06/19 06:32:04;;;;;;;2.50;2.20;;;23.20;99.90;;;;;;4975694;28;20498;-69
2022/06/19 06:34:31;;;;;;;7.37;2.00;;;22.80;99.90;;;;;;4976089;28;20474;-69
2022/06/19 06:36:59;;;;;;;5.80;3.10;;;21.70;99.90;;;;;;4980510;28;20866;-69
2022/06/19 06:39:25;;;;;;;5.20;3.40;;;21.00;99.90;;;;;;4984353;28;20474;-70
2022/06/19 06:41:52;;;;;;;2.37;2.07;;;20.70;99.90;;;;;;4984515;28;20484;-70
2022/06/19 06:44:19;;;;;;;3.93;1.70;;;20.20;99.90;;;;;;4977033;28;20459;-69
2022/06/19 06:46:45;;;;;;;3.20;2.10;;;20.20;99.90;;;;;;4975844;28;20482;-69
2022/06/19 06:49:12;;;;;;;5.00;2.40;;;20.20;99.90;;;;;;4975885;28;20514;-69
2022/06/19 06:51:39;;;;;;;4.00;2.10;;;20.00;99.90;;;;;;4974759;28;20514;-69
2022/06/19 06:54:07;;;;;;;4.50;2.77;;;20.20;99.90;;;;;;4974704;28;20470;-69
2022/06/19 06:56:35;;;;;;;6.07;2.70;;;20.50;99.90;;;;;;4975143;28;20494;-68
2022/06/19 06:59:03;;;;;;;5.20;2.00;;;20.10;99.90;;;;;;4975287;28;20463;-69
2022/06/19 07:01:30;;;;;;;3.67;2.27;;;20.30;99.90;;;;;;4974317;28;20523;-69
2022/06/19 07:03:59;;;;;;;7.63;2.30;;;20.50;99.90;;;;;;4975000;28;20474;-70
2022/06/19 07:06:28;;;;;;;6.40;2.20;;;20.50;99.90;;;;;;4974770;28;20905;-70
2022/06/19 07:08:55;;;;;;;4.13;2.40;;;20.40;99.90;;;;;;4974863;28;20560;-70
2022/06/19 07:11:26;;;;;;;3.87;2.10;;;20.30;99.90;;;;;;4970834;28;20989;-70
2022/06/19 07:13:53;;;;;;;5.40;1.83;;;20.70;99.90;;;;;;4974919;28;20470;-70
2022/06/19 07:16:20;;;;;;;6.67;3.13;;;21.00;99.90;;;;;;4974434;28;20490;-70
2022/06/19 07:18:47;;;;;;;2.60;2.07;;;21.10;99.90;;;;;;4974595;28;20968;-70
2022/06/19 07:21:14;;;;;;;4.77;2.20;;;21.10;99.90;;;;;;4974314;28;20487;-70
2022/06/19 07:23:41;;;;;;;2.20;2.00;;;21.30;99.90;;;;;;4974925;28;20463;-70
2022/06/19 07:26:12;;;;;;;6.30;2.00;;;21.70;99.90;;;;;;4974382;28;20471;-69
2022/06/19 07:28:42;;;;;;;4.37;2.30;;;21.70;99.90;;;;;;4974893;28;20491;-68
2022/06/19 07:31:10;;;;;;;5.43;2.40;;;22.00;99.90;;;;;;4973708;28;20507;-69
2022/06/19 07:33:38;;;;;;;3.50;1.93;;;21.90;99.90;;;;;;4974494;28;20546;-68
2022/06/19 07:36:05;;;;;;;2.73;2.00;;;22.30;99.90;;;;;;4974395;28;20468;-68
2022/06/19 07:38:32;;;;;;;2.83;1.70;;;22.10;99.90;;;;;;4974328;28;20468;-69
2022/06/19 07:40:58;;;;;;;2.37;2.00;;;22.00;99.90;;;;;;4973798;28;20856;-68
2022/06/19 07:43:26;;;;;;;4.37;2.30;;;21.80;99.90;;;;;;4974515;28;20468;-70
2022/06/19 07:45:54;;;;;;;3.70;2.20;;;22.00;99.90;;;;;;4969124;28;20983;-68
2022/06/19 07:51:06;;;;;;;2.40;2.20;;;22.10;99.90;;;;;;4973569;28;20592;-68
2022/06/19 07:53:32;;;;;;;2.27;2.10;;;22.40;99.90;;;;;;4974260;28;20494;-68
2022/06/19 07:55:59;;;;;;;3.67;1.93;;;22.80;99.90;;;;;;4973756;28;20468;-68
2022/06/19 07:58:26;;;;;;;1.93;1.83;;;22.80;99.90;;;;;;4975278;28;20459;-69
2022/06/19 08:00:54;;;;;;;7.90;3.07;;;22.60;99.90;;;;;;4973405;28;20917;-69
2022/06/19 08:03:21;;;;;;;2.60;2.40;;;22.40;99.90;;;;;;4974258;28;20483;-69
2022/06/19 08:05:48;;;;;;;5.07;2.10;;;22.40;99.90;;;;;;4973944;28;20776;-69
2022/06/19 08:08:19;;;;;;;3.00;2.80;;;22.70;99.90;;;;;;4974371;28;20510;-68
2022/06/19 08:10:50;;;;;;;4.40;2.93;;;22.50;99.90;;;;;;4973227;28;20503;-69
2022/06/19 08:13:19;;;;;;;2.53;2.40;;;22.30;99.90;;;;;;4973837;28;20543;-70
2022/06/19 08:15:46;;;;;;;4.00;2.80;;;22.40;99.90;;;;;;4974253;28;20478;-69
2022/06/19 08:18:15;;;;;;;4.83;3.17;;;22.30;99.90;;;;;;4974389;28;20466;-69
2022/06/19 08:20:42;;;;;;;2.73;2.53;;;22.80;99.90;;;;;;4973884;28;20495;-70
2022/06/19 08:23:09;;;;;;;2.20;2.10;;;23.20;99.90;;;;;;4973920;28;20460;-68
2022/06/19 08:25:36;;;;;;;3.23;2.93;;;23.30;99.90;;;;;;4973417;28;20491;-69
2022/06/19 08:28:03;;;;;;;2.80;2.67;;;22.90;99.90;;;;;;4973394;28;21003;-68
2022/06/19 08:30:32;;;;;;;4.00;3.30;;;22.50;99.90;;;;;;4972685;28;21355;-68
2022/06/19 08:32:59;;;;;;;5.10;3.07;;;22.80;99.90;;;;;;4973932;28;20826;-68
2022/06/19 08:35:29;;;;;;;2.73;2.53;;;23.10;99.90;;;;;;4967144;28;20816;-69
2022/06/19 08:38:01;;;;;;;3.80;2.60;;;23.30;99.90;;;;;;4974421;28;20456;-69
2022/06/19 08:40:39;;;;;;;3.03;2.83;;;23.40;99.90;;;;;;4973348;28;20851;-69
2022/06/19 08:43:23;;;;;;;3.53;2.50;;;23.20;99.90;;;;;;4974212;28;20464;-69
2022/06/19 08:45:59;;;;;;;3.13;2.83;;;23.60;99.90;;;;;;4973753;28;20985;-69
2022/06/19 08:48:49;;;;;;;3.70;2.50;;;23.60;99.90;;;;;;4975091;28;20590;-70
2022/06/19 08:51:27;;;;;;;3.93;2.60;;;23.60;99.90;;;;;;4974269;28;20480;-70
2022/06/19 08:54:08;;;;;;;2.80;2.60;;;23.00;99.90;;;;;;4974479;28;20468;-70
2022/06/19 08:56:42;;;;;;;4.17;2.83;;;23.30;99.90;;;;;;4975433;28;20976;-68
2022/06/19 08:59:17;;;;;;;3.00;2.70;;;23.30;99.90;;;;;;4975156;28;20479;-68
2022/06/19 09:01:54;;;;;;;3.40;3.03;;;23.60;99.90;;;;;;4973203;28;20939;-69
2022/06/19 09:07:35;;;;;;;2.97;2.73;;;24.00;99.90;;;;;;4952122;28;20456;-69
2022/06/19 09:10:18;;;;;;;4.83;3.00;;;23.90;99.90;;;;;;4975447;28;20487;-68
2022/06/19 09:13:18;;;;;;;3.27;2.97;;;23.50;99.90;;;;;;4972802;28;20472;-68
2022/06/19 09:15:49;;;;;;;3.93;2.77;;;23.20;99.90;;;;;;4955054;28;20477;-68
2022/06/19 09:18:24;;;;;;;3.07;2.80;;;23.70;99.90;;;;;;4956327;29;20554;-70
2022/06/19 09:20:59;;;;;;;5.00;2.73;;;23.70;99.90;;;;;;4955892;29;20490;-69
2022/06/19 09:23:53;;;;;;;3.40;3.10;;;23.70;99.90;;;;;;4955908;29;20467;-69
2022/06/19 09:26:22;;;;;;;2.40;2.23;;;23.70;99.90;;;;;;4954289;29;20468;-69
2022/06/19 09:28:55;;;;;;;4.43;2.77;;;23.90;99.90;;;;;;4954101;29;20488;-69
2022/06/19 09:31:29;;;;;;;2.63;2.40;;;24.40;99.90;;;;;;4952276;29;20495;-69
2022/06/19 09:34:02;;;;;;;3.00;2.77;;;24.40;99.90;;;;;;4952841;29;20477;-70
2022/06/19 09:36:35;;;;;;;3.43;3.00;;;24.20;99.90;;;;;;4952820;29;20479;-69
2022/06/19 09:39:09;;;;;;;3.03;2.80;;;24.20;99.90;;;;;;4953965;29;20833;-69
2022/06/19 09:41:40;;;;;;;4.43;3.00;;;24.30;99.90;;;;;;4953196;29;20487;-69
2022/06/19 09:44:18;;;;;;;5.63;3.60;;;24.10;99.90;;;;;;4953211;28;20623;-67
2022/06/19 09:46:49;;;;;;;4.53;3.00;;;24.10;99.90;;;;;;4964522;28;20490;-70
2022/06/19 09:49:21;;;;;;;3.37;3.07;;;24.40;99.90;;;;;;4972301;28;20492;-70
2022/06/19 09:51:54;;;;;;;5.40;3.10;;;24.70;99.90;;;;;;4972483;28;20485;-68
2022/06/19 09:54:27;;;;;;;4.30;2.93;;;24.70;99.90;;;;;;4972448;28;20479;-70
2022/06/19 09:57:00;;;;;;;4.00;2.90;;;24.30;99.90;;;;;;4972013;28;20472;-67
2022/06/19 09:59:35;;;;;;;7.40;3.20;;;23.80;99.90;;;;;;4975580;28;20490;-67
2022/06/19 10:02:07;;;;;;;3.60;2.80;;;23.60;99.90;;;;;;4976167;28;20498;-69
2022/06/19 10:04:38;;;;;;;4.60;3.00;;;23.60;99.90;;;;;;4976014;28;20970;-69
2022/06/19 10:07:10;;;;;;;2.87;2.67;;;23.70;99.90;;;;;;4975851;28;20971;-67
2022/06/19 10:09:48;;;;;;;3.47;2.63;;;24.00;99.90;;;;;;4976083;28;20492;-68
2022/06/19 10:12:23;;;;;;;3.13;2.97;;;24.10;99.90;;;;;;4975282;28;20498;-70
2022/06/19 10:14:52;;;;;;;3.50;2.50;;;24.30;99.90;;;;;;4976325;28;20470;-68
2022/06/19 10:17:23;;;;;;;5.80;3.40;;;24.50;99.90;;;;;;4975789;28;20467;-70
2022/06/19 10:19:53;;;;;;;2.80;2.40;;;24.60;99.90;;;;;;4975695;28;20825;-70
2022/06/19 10:22:36;;;;;;;3.40;3.23;;;24.70;99.90;;;;;;4975797;28;20490;-71
2022/06/19 10:25:35;;;;;;;4.30;3.23;;;24.70;99.90;;;;;;4975762;28;20470;-72
2022/06/19 10:28:17;;;;;;;8.70;3.40;;;24.10;99.90;;;;;;4976138;28;20479;-70
2022/06/19 10:30:54;;;;;;;3.87;2.80;;;24.00;99.90;;;;;;4974872;28;20476;-71
2022/06/19 10:33:34;;;;;;;4.00;3.60;;;24.20;99.90;;;;;;4973161;28;20980;-72
2022/06/19 10:36:08;;;;;;;3.17;2.20;;;24.50;99.90;;;;;;4975857;28;20467;-69
2022/06/19 10:38:50;;;;;;;2.80;2.53;;;24.60;99.90;;;;;;4976322;28;20467;-71
2022/06/19 10:44:18;;;;;;;4.43;3.07;;;24.30;99.90;;;;;;4976584;28;20823;-71
2022/06/19 10:46:55;;;;;;;4.73;3.43;;;24.40;99.90;;;;;;4977582;28;20522;-71
2022/06/19 10:49:29;;;;;;;4.90;3.40;;;24.50;99.90;;;;;;4977366;28;20539;-68
2022/06/19 10:52:05;;;;;;;2.37;2.27;;;24.60;99.90;;;;;;4975779;28;20487;-71
2022/06/19 10:54:57;;;;;;;4.23;3.50;;;24.70;99.90;;;;;;4976219;28;20527;-69
2022/06/19 10:57:37;;;;;;;3.03;2.90;;;24.60;99.90;;;;;;4975530;28;20463;-69
2022/06/19 11:00:05;;;;;;;3.00;2.80;;;24.50;99.90;;;;;;4976285;28;20478;-69
2022/06/19 11:05:29;;;;;;;2.33;2.23;;;24.50;99.90;;;;;;4975532;28;20450;-69
2022/06/19 11:07:56;;;;;;;3.97;3.60;;;24.50;99.90;;;;;;4976216;28;20471;-69
2022/06/19 11:10:32;;;;;;;2.63;2.10;;;24.70;99.90;;;;;;4974243;28;20495;-69
2022/06/19 11:13:03;;;;;;;2.67;2.43;;;24.90;99.90;;;;;;4972591;28;20463;-68
2022/06/19 11:15:33;;;;;;;4.73;2.60;;;24.90;99.90;;;;;;4974543;28;20530;-68
2022/06/19 11:18:25;;;;;;;2.83;2.03;;;24.90;98.80;;;;;;4975328;28;20483;-69
2022/06/19 11:21:00;;;;;;;2.33;2.13;;;25.20;99.00;;;;;;4960430;28;20553;-69
2022/06/19 11:23:31;;;;;;;1.70;1.60;;;25.20;97.70;;;;;;4974714;28;20467;-68
2022/06/19 11:26:05;;;;;;;2.70;2.30;;;25.20;95.20;;;;;;4974725;28;20464;-69
2022/06/19 11:28:47;;;;;;;2.27;2.10;;;25.20;95.70;;;;;;4975480;28;20997;-69
2022/06/19 11:31:18;;;;;;;3.30;1.83;;;25.30;95.70;;;;;;4974045;28;20483;-69
2022/06/19 11:33:47;;;;;;;2.00;1.90;;;25.00;94.40;;;;;;4975043;28;20464;-69
2022/06/19 11:36:28;;;;;;;2.20;2.07;;;24.70;94.80;;;;;;4973962;28;20976;-69
2022/06/19 11:38:55;;;;;;;2.10;2.03;;;24.50;95.00;;;;;;4974590;28;20459;-68
2022/06/19 11:41:31;;;;;;;2.43;2.20;;;24.40;95.10;;;;;;4973872;28;20511;-69
2022/06/19 11:44:18;;;;;;;5.00;2.73;;;24.50;95.60;;;;;;4973468;28;20482;-69
2022/06/19 11:46:48;;;;;;;4.73;2.30;;;24.50;95.30;;;;;;4966011;28;20463;-69
2022/06/19 11:49:24;;;;;;;3.27;1.60;;;24.40;95.20;;;;;;4974489;28;20862;-69
2022/06/19 11:51:52;;;;;;;2.30;2.20;;;24.20;94.90;;;;;;4974205;28;20685;-69
2022/06/19 11:54:26;;;;;;;1.93;1.83;;;24.10;95.50;;;;;;4974007;28;20475;-69
2022/06/19 11:56:54;;;;;;;1.60;1.50;;;24.10;95.10;;;;;;4973612;28;20484;-68
2022/06/19 11:59:31;;;;;;;1.70;1.67;;;23.90;95.20;;;;;;4973832;28;20466;-68
2022/06/19 12:01:58;;;;;;;2.73;2.03;;;23.80;95.80;;;;;;4972981;28;20500;-69
2022/06/19 12:04:30;;;;;;;3.60;1.90;;;23.80;96.20;;;;;;4973736;28;20853;-70
2022/06/19 12:07:00;;;;;;;4.77;2.00;;;23.70;96.80;;;;;;4973303;28;20494;-69
2022/06/19 12:09:36;;;;;;;4.40;2.00;;;23.70;97.50;;;;;;4974161;28;20952;-70
2022/06/19 12:12:14;;;;;;;1.83;1.73;;;23.70;98.20;;;;;;4973457;28;20492;-71
2022/06/19 12:14:59;;;;;;;3.40;2.00;;;23.60;98.50;;;;;;4973825;28;20979;-70
2022/06/19 12:17:37;;;;;;;2.33;2.20;;;23.70;98.80;;;;;;4973601;28;20468;-70
2022/06/19 12:20:24;;;;;;;5.20;2.93;;;23.50;99.60;;;;;;4973556;28;20471;-71
2022/06/19 12:22:53;;;;;;;3.33;2.57;;;23.30;99.90;;;;;;4973868;28;20474;-69
2022/06/19 12:25:34;;;;;;;2.50;2.30;;;23.10;99.90;;;;;;4972853;28;20486;-69
2022/06/19 12:28:09;;;;;;;2.70;2.40;;;22.90;99.90;;;;;;4973941;28;20822;-69
2022/06/19 12:30:42;;;;;;;3.80;2.93;;;22.50;99.90;;;;;;4972941;28;20509;-69
2022/06/19 12:33:17;;;;;;;4.63;2.00;;;21.80;99.90;;;;;;4973128;28;20810;-71
2022/06/19 12:35:48;;;;;;;2.30;2.10;;;21.50;99.90;;;;;;4965228;28;20459;-70
2022/06/19 12:38:18;;;;;;;4.57;2.00;;;21.30;99.90;;;;;;4973619;28;20464;-69
2022/06/19 12:41:00;;;;;;;7.70;2.43;;;21.20;99.90;;;;;;4972260;28;20488;-70
2022/06/19 12:43:40;;;;;;;3.13;2.90;;;21.10;99.90;;;;;;4972969;28;20464;-70
2022/06/19 12:46:16;;;;;;;3.23;2.80;;;21.10;99.90;;;;;;4972303;28;20460;-70
2022/06/19 12:48:54;;;;;;;2.50;2.30;;;21.10;99.90;;;;;;4973075;28;20464;-70
2022/06/19 12:51:26;;;;;;;2.63;2.53;;;21.10;99.90;;;;;;4972611;28;20483;-70
2022/06/19 12:54:33;;;;;;;3.83;3.03;;;21.20;99.90;;;;;;4972706;28;20464;-70
2022/06/19 12:57:08;;;;;;;2.50;2.40;;;21.20;99.90;;;;;;4972849;28;20473;-70
2022/06/19 12:59:58;;;;;;;5.33;3.10;;;21.20;99.90;;;;;;4973093;28;20502;-70
2022/06/19 13:02:41;;;;;;;3.73;2.73;;;21.10;99.90;;;;;;4972726;28;20506;-71
2022/06/19 13:05:19;;;;;;;4.80;2.80;;;21.10;99.90;;;;;;4973227;28;20470;-70
2022/06/19 13:07:56;;;;;;;3.60;2.70;;;21.10;99.90;;;;;;4973056;28;20490;-70
2022/06/19 13:10:42;;;;;;;2.70;2.50;;;20.90;99.90;;;;;;4971849;28;20484;-71
2022/06/19 13:13:33;;;;;;;8.10;2.73;;;20.70;99.90;;;;;;4969865;28;20468;-71
2022/06/19 13:16:05;;;;;;;3.93;3.37;;;20.60;99.90;;;;;;4953289;29;20523;-71
2022/06/19 13:18:57;;;;;;;6.10;2.93;;;20.50;99.90;;;;;;4953336;29;20496;-68
2022/06/19 13:21:31;;;;;;;3.07;2.50;;;20.60;99.90;;;;;;4953359;29;20538;-71
2022/06/19 13:24:13;;;;;;;3.40;3.20;;;20.60;99.90;;;;;;4953612;29;20449;-70
2022/06/19 13:29:43;;;;;;;4.03;2.30;;;20.60;99.90;;;;;;4953495;29;20601;-71
2022/06/19 13:32:18;;;;;;;4.93;2.70;;;20.50;99.90;;;;;;4953131;28;20495;-71
2022/06/19 13:34:59;;;;;;;4.00;2.70;;;20.40;99.90;;;;;;4953944;29;20468;-71
2022/06/19 13:37:38;;;;;;;5.33;2.60;;;20.40;99.90;;;;;;4953342;29;20476;-70
2022/06/19 13:40:14;;;;;;;9.23;3.40;;;20.30;99.90;;;;;;4953178;29;20487;-71
2022/06/19 13:43:01;;;;;;;4.53;2.60;;;20.20;99.90;;;;;;4953941;29;20475;-71
2022/06/19 13:45:41;;;;;;;8.30;3.10;;;20.00;99.90;;;;;;4962262;28;20464;-71
2022/06/19 13:48:15;;;;;;;8.03;2.50;;;20.20;99.90;;;;;;4973302;28;20653;-71
2022/06/19 13:50:48;;;;;;;3.90;3.10;;;20.20;99.90;;;;;;4972919;28;20542;-70
2022/06/19 13:53:21;;;;;;;3.10;2.90;;;20.20;99.90;;;;;;4973334;28;20464;-69
2022/06/19 13:56:01;;;;;;;6.43;2.47;;;20.20;99.90;;;;;;4972907;28;20928;-69
2022/06/19 13:58:43;;;;;;;4.87;3.77;;;20.20;99.90;;;;;;4972952;28;20471;-68
2022/06/19 14:01:22;;;;;;;6.23;3.07;;;20.10;99.90;;;;;;4972067;28;20491;-68
2022/06/19 14:07:17;;;;;;;3.67;2.90;;;19.90;99.90;;;;;;4973088;28;20959;-67
2022/06/19 14:09:47;;;;;;;6.13;2.87;;;19.80;99.90;;;;;;4972611;28;20522;-69
2022/06/19 14:12:19;;;;;;;7.07;4.40;;;19.70;99.90;;;;;;4972206;28;21004;-69
2022/06/19 14:14:47;;;;;;;6.23;4.40;;;19.60;99.90;;;;;;4973876;28;20464;-68
2022/06/19 14:17:27;;;;;;;4.10;2.70;;;19.60;99.90;;;;;;4974663;28;20460;-69
2022/06/19 14:20:02;;;;;;;5.93;3.93;;;19.50;99.90;;;;;;4976072;28;20459;-69
2022/06/19 14:22:38;;;;;;;4.10;3.70;;;19.60;99.90;;;;;;4975120;28;20479;-70
2022/06/19 14:25:17;;;;;;;5.97;3.00;;;19.50;99.90;;;;;;4974550;28;20471;-69
2022/06/19 14:27:58;;;;;;;5.50;3.70;;;19.50;99.90;;;;;;4981548;28;20471;-67
2022/06/19 14:30:32;;;;;;;5.13;3.10;;;19.50;99.90;;;;;;4983572;28;20586;-68
2022/06/19 14:33:01;;;;;;;8.40;3.47;;;19.60;99.90;;;;;;4985278;28;20463;-68
2022/06/19 14:35:34;;;;;;;5.93;3.00;;;19.50;99.90;;;;;;4983385;28;20552;-70
2022/06/19 14:38:34;;;;;;;8.03;2.80;;;19.50;99.90;;;;;;4973757;28;20472;-69
2022/06/19 14:41:08;;;;;;;4.53;3.30;;;19.40;99.90;;;;;;4970613;28;20480;-70
2022/06/19 14:43:52;;;;;;;6.60;3.90;;;19.40;99.90;;;;;;4972237;28;20470;-70
2022/06/19 14:46:55;;;;;;;5.50;3.60;;;19.30;99.90;;;;;;4975071;28;20474;-69
2022/06/19 14:50:00;;;;;;;5.53;4.67;;;19.30;99.90;;;;;;4975200;28;20470;-68
2022/06/19 14:52:49;;;;;;;3.37;3.10;;;19.20;99.90;;;;;;4976280;28;20511;-69
2022/06/19 14:55:29;;;;;;;4.90;3.00;;;19.20;99.90;;;;;;4977875;28;20463;-67
2022/06/19 14:57:58;;;;;;;6.70;3.77;;;19.20;99.90;;;;;;4981208;28;20501;-69
2022/06/19 15:00:29;;;;;;;4.50;3.97;;;19.20;99.90;;;;;;4980236;28;20949;-70
2022/06/19 15:03:00;;;;;;;3.13;2.83;;;19.20;99.90;;;;;;4976794;28;20574;-70
2022/06/19 15:05:36;;;;;;;3.33;3.00;;;19.20;99.90;;;;;;4975298;28;20470;-69
2022/06/19 15:08:06;;;;;;;5.40;2.80;;;19.30;99.90;;;;;;4975802;28;20467;-70
2022/06/19 15:10:38;;;;;;;4.03;2.90;;;19.50;99.90;;;;;;4974325;28;20491;-68
2022/06/19 15:13:17;;;;;;;5.10;3.63;;;19.50;99.90;;;;;;4971922;28;20974;-68
2022/06/19 15:15:47;;;;;;;7.70;3.80;;;19.70;99.90;;;;;;4955437;28;20552;-69
2022/06/19 15:18:18;;;;;;;4.17;3.50;;;19.80;99.90;;;;;;4954971;29;20972;-69
2022/06/19 15:21:05;;;;;;;3.80;3.27;;;20.00;99.90;;;;;;4954879;29;20484;-69
2022/06/19 15:23:46;;;;;;;3.73;3.13;;;20.00;99.90;;;;;;4955380;29;20551;-69
2022/06/19 15:26:48;;;;;;;3.93;3.43;;;19.90;99.90;;;;;;4955400;29;20551;-70
2022/06/19 15:29:45;;;;;;;5.00;2.97;;;19.90;99.90;;;;;;4956041;29;20472;-69
2022/06/19 15:32:56;;;;;;;5.33;3.10;;;19.80;99.90;;;;;;4955569;29;20481;-71
2022/06/19 15:35:36;;;;;;;4.70;2.70;;;19.80;99.90;;;;;;4955523;29;20832;-69
2022/06/19 15:38:25;;;;;;;5.27;3.50;;;19.80;99.90;;;;;;4955971;29;20839;-69
2022/06/19 15:40:51;;;;;;;4.03;2.60;;;19.80;99.90;;;;;;4954289;29;20491;-69
2022/06/19 15:43:41;;;;;;;3.30;3.00;;;19.70;99.90;;;;;;4955389;29;20844;-69
2022/06/19 15:46:10;;;;;;;4.83;3.07;;;19.80;99.90;;;;;;4955205;28;20922;-68
2022/06/19 15:48:43;;;;;;;3.00;2.80;;;19.80;99.90;;;;;;4955026;29;20524;-69
2022/06/19 15:51:29;;;;;;;4.27;3.03;;;19.60;99.90;;;;;;4954216;29;20496;-69
2022/06/19 15:54:00;;;;;;;6.23;3.37;;;19.60;99.90;;;;;;4954893;29;20472;-69
2022/06/19 15:56:31;;;;;;;6.27;3.97;;;19.60;99.90;;;;;;4953245;28;20472;-70
2022/06/19 15:59:03;;;;;;;3.83;3.30;;;19.60;99.90;;;;;;4955627;28;20480;-70
2022/06/19 16:01:32;;;;;;;5.47;3.37;;;19.60;99.90;;;;;;4956006;28;20547;-69
2022/06/19 16:04:04;;;;;;;9.47;3.90;;;19.50;99.90;;;;;;4974418;28;20467;-69
2022/06/19 16:06:34;;;;;;;6.80;2.97;;;19.30;99.90;;;;;;4975162;28;20886;-69
2022/06/19 16:09:07;;;;;;;2.73;2.63;;;19.30;99.90;;;;;;4974586;28;20836;-69
2022/06/19 16:11:36;;;;;;;6.30;3.00;;;19.40;99.90;;;;;;4973123;28;20491;-69
2022/06/19 16:14:15;;;;;;;3.83;2.57;;;19.50;99.90;;;;;;4973905;28;20831;-69
2022/06/19 16:16:48;;;;;;;4.37;4.07;;;19.50;99.90;;;;;;4974027;28;20467;-68
2022/06/19 16:19:19;;;;;;;5.50;3.30;;;19.50;99.90;;;;;;4974392;28;20468;-69
2022/06/19 16:21:57;;;;;;;5.00;3.40;;;19.50;99.90;;;;;;4973084;28;20482;-69
2022/06/19 16:24:26;;;;;;;3.70;3.40;;;19.40;99.90;;;;;;4973314;28;20741;-68
2022/06/19 16:26:55;;;;;;;4.03;3.10;;;19.30;99.90;;;;;;4973344;28;20471;-69
2022/06/19 16:29:25;;;;;;;4.40;3.47;;;19.20;99.90;;;;;;4973534;28;20470;-68
2022/06/19 16:31:55;;;;;;;3.17;3.07;;;19.30;99.90;;;;;;4972691;28;20496;-69
2022/06/19 16:34:25;;;;;;;2.80;2.60;;;19.30;99.90;;;;;;4972134;28;20468;-69
2022/06/19 16:45:28;;;;;;;4.97;2.67;;;19.20;99.90;;;;;;4972833;28;20465;-68
2022/06/19 16:48:02;;;;;;;3.30;2.30;;;19.10;99.90;;;;;;4973998;28;20478;-71
2022/06/19 16:50:46;;;;;;;3.00;2.77;;;19.10;99.90;;;;;;4973543;28;20513;-69
2022/06/19 16:53:13;;;;;;;5.80;3.47;;;19.00;99.90;;;;;;4973614;28;20475;-71
2022/06/19 16:55:42;;;;;;;2.10;1.93;;;19.00;99.90;;;;;;4972424;28;20825;-70
2022/06/19 16:58:13;;;;;;;3.40;2.40;;;18.90;99.90;;;;;;4973506;28;20578;-69
2022/06/19 17:00:48;;;;;;;2.37;2.13;;;18.90;99.90;;;;;;4972191;28;20564;-70
2022/06/19 17:03:18;;;;;;;3.00;2.17;;;18.80;99.90;;;;;;4972863;28;20459;-68
2022/06/19 17:05:50;;;;;;;4.13;2.63;;;18.80;99.90;;;;;;4973678;28;20487;-69
2022/06/19 17:11:08;;;;;;;3.47;2.70;;;18.70;99.90;;;;;;4972320;28;20498;-69
2022/06/19 17:13:39;;;;;;;2.67;2.47;;;18.60;99.90;;;;;;4972903;28;20464;-69
2022/06/19 17:16:07;;;;;;;2.93;2.73;;;18.50;99.90;;;;;;4972281;28;20468;-69
2022/06/19 17:18:40;;;;;;;2.40;2.30;;;18.50;99.90;;;;;;4972532;28;20463;-69
2022/06/19 17:21:12;;;;;;;3.60;2.30;;;18.50;99.90;;;;;;4972334;28;20482;-69
2022/06/19 17:23:38;;;;;;;4.73;4.33;;;18.50;99.90;;;;;;4965843;28;20471;-69
2022/06/19 17:26:12;;;;;;;4.80;2.40;;;18.50;99.90;;;;;;4971993;28;20475;-68
2022/06/19 17:28:51;;;;;;;4.57;2.77;;;18.40;99.90;;;;;;4972630;28;21031;-69
2022/06/19 17:31:21;;;;;;;3.30;3.10;;;18.40;99.90;;;;;;4971275;28;20863;-68
2022/06/19 17:33:50;;;;;;;5.37;2.97;;;18.30;99.90;;;;;;4972077;28;20468;-69
2022/06/19 17:36:20;;;;;;;2.70;2.50;;;18.10;99.90;;;;;;4971893;28;20558;-70
2022/06/19 17:38:49;;;;;;;2.80;2.70;;;18.00;99.90;;;;;;4972329;28;20838;-70
2022/06/19 17:41:38;;;;;;;3.53;3.23;;;18.00;99.90;;;;;;4971792;28;21003;-68
2022/06/19 17:44:06;;;;;;;2.67;2.57;;;17.90;99.90;;;;;;4972370;28;20464;-69
2022/06/19 17:46:36;;;;;;;2.93;2.73;;;17.80;99.90;;;;;;4971998;28;20551;-69